Tyndall Air Force Base
KPAM : now visible

Airfield :











YOU CAN JOIN US ON...

 
LOGIN :

Register | Disclaimer

   EN    FR    IT 

 









Legend :    VFR   Marginal VFR   IFR   Intensive IFR   Very Intensive IFR
Visi :
Ceiling :
>= 8 km
>= 3000ft
5 to 8 km
1000 to 3000 ft
1500m to 5 km
500 to 1000 ft
800 to 1500m
200 to 500 ft
< 800m
< 200 ft
Symbols :   Thunderstorms  Fog  Heavy snow  Heavy precipitations  Wind > 20 kt






- Airport Elevation : 17 ft


KPAM - Tyndall Air Force Base

CURRENT METAR :
  • 070215Z AUTO 15005KT 10SM SCT047 20/19 A3019 RMK AO2 SLP226 $

EXPIRED METARs :
  • 070205Z AUTO 15005KT 10SM BKN047 20/19 A3019 RMK AO2 SLP226 $
  • 070155Z AUTO 14006KT 10SM SCT050 20/19 A3019 RMK AO2 SLP226 T02020187 $
  • 070055Z AUTO 14005KT 10SM BKN050 21/19 A3018 RMK AO2 SLP223 T02140191 $
  • 062355Z 16007KT 10SM FEW027 SCT043 BKN055 22/19 A3017 RMK AO2A SLP220 T02220192 10260 20222 52008 $

TAF TAF KPAM
Valid from the 06 at 20:00 until the 08 at 02:00 UTC


062000Z 0620/0802 17009KT 9999 BKN025 BKN050 QNH3012INS
TEMPO 0621/0624 SCT025
BECMG 0703/0704 18006KT 4800 BR BKN005 QNH3020INS
TEMPO 0706/0713 14006KT 0800 FG OVC002
BECMG 0714/0715 12006KT 9999 NSW BKN025 BKN040 QNH3024INS
TEMPO 0718/0720 18006KT 9000 -RA TX27/0720Z TN18/0712Z
KZJX FIR / North America



MET'MAP, your aeronautical weather chart ! - Copyright ORBIFLY December 2007 - Disclaimer

ORBIFLY MET'MAP TEAM :

Programming & Development : Alexandra Zaïnal
Original concept : Baudouin d'Aumeries
Technical & hardware support : Manuel Goepfert
Assistance : Marc-Olivier Méhu




SOURCES & CREDITS :

   NOAA       Earth
Advisory